createdAt,value
2023-05-06T00:01:29.302Z,9.30
2023-05-06T00:03:56.966Z,7.55
2023-05-06T00:06:24.322Z,9.07
2023-05-06T00:08:51.545Z,7.70
2023-05-06T00:11:18.751Z,7.22
2023-05-06T00:13:46.195Z,8.80
2023-05-06T00:16:13.555Z,9.75
2023-05-06T00:18:41.513Z,10.98
2023-05-06T00:21:08.745Z,9.95
2023-05-06T00:23:35.617Z,9.52
2023-05-06T00:26:02.873Z,8.87
2023-05-06T00:28:29.880Z,8.35
2023-05-06T00:30:57.442Z,9.10
2023-05-06T00:33:24.668Z,10.82
2023-05-06T00:35:52.907Z,10.88
2023-05-06T00:38:20.266Z,11.37
2023-05-06T00:40:47.519Z,9.00
2023-05-06T00:43:14.759Z,10.23
2023-05-06T00:45:42.146Z,7.60
2023-05-06T00:48:09.699Z,8.85
2023-05-06T00:50:37.361Z,8.27
2023-05-06T00:53:08.072Z,9.20
2023-05-06T00:55:35.355Z,10.15
2023-05-06T00:58:02.659Z,9.80
2023-05-06T01:00:29.972Z,10.55
2023-05-06T01:02:57.437Z,8.93
2023-05-06T01:05:29.801Z,11.77
2023-05-06T01:08:23.694Z,10.63
2023-05-06T01:10:55.704Z,12.18
2023-05-06T01:13:45.412Z,10.60
2023-05-06T01:16:14.505Z,8.47
2023-05-06T01:18:43.016Z,11.80
2023-05-06T01:21:10.397Z,11.88
2023-05-06T01:23:53.308Z,13.32
2023-05-06T01:26:20.671Z,13.00
2023-05-06T01:28:47.882Z,11.77
2023-05-06T01:31:44.295Z,13.13
2023-05-06T01:34:39.827Z,11.40
2023-05-06T01:37:53.773Z,11.82
2023-05-06T01:40:25.034Z,13.30
2023-05-06T01:42:53.233Z,12.83
2023-05-06T01:45:21.827Z,12.85
2023-05-06T01:47:49.102Z,13.88
2023-05-06T01:50:16.775Z,12.70
2023-05-06T01:52:43.658Z,12.60
2023-05-06T01:55:10.963Z,10.13
2023-05-06T01:57:39.977Z,13.60
2023-05-06T02:00:07.464Z,10.35
2023-05-06T02:02:39.477Z,14.57
2023-05-06T02:05:07.951Z,14.77
2023-05-06T02:07:39.014Z,12.27
2023-05-06T02:10:06.451Z,15.02
2023-05-06T02:12:35.503Z,15.30
2023-05-06T02:15:02.832Z,14.65
2023-05-06T02:17:29.833Z,16.25
2023-05-06T02:19:57.337Z,14.47
2023-05-06T02:22:24.536Z,14.82
2023-05-06T02:24:51.767Z,16.70
2023-05-06T02:27:19.101Z,12.63
2023-05-06T02:29:46.659Z,16.45
2023-05-06T02:32:14.261Z,14.40
2023-05-06T02:34:41.474Z,13.70
2023-05-06T02:37:08.742Z,14.23
2023-05-06T02:39:35.961Z,13.95
2023-05-06T02:42:03.765Z,14.05
2023-05-06T02:44:31.121Z,15.10
2023-05-06T02:46:59.176Z,15.25
2023-05-06T02:49:26.503Z,12.68
2023-05-06T02:51:53.551Z,14.38
2023-05-06T02:54:20.722Z,15.57
2023-05-06T02:56:47.582Z,16.80
2023-05-06T02:59:14.823Z,12.75
2023-05-06T03:01:42.193Z,15.10
2023-05-06T03:04:09.678Z,15.18
2023-05-06T03:06:37.094Z,16.98
2023-05-06T03:09:05.210Z,14.07
2023-05-06T03:11:32.831Z,14.40
2023-05-06T03:14:04.051Z,15.32
2023-05-06T03:16:31.491Z,14.27
2023-05-06T03:19:00.712Z,15.48
2023-05-06T03:21:28.483Z,16.77
2023-05-06T03:23:56.240Z,13.07
2023-05-06T03:26:25.241Z,14.48
2023-05-06T03:28:53.041Z,15.32
2023-05-06T03:31:22.425Z,14.68
2023-05-06T03:33:49.877Z,14.57
2023-05-06T03:36:17.554Z,11.52
2023-05-06T03:38:47.436Z,13.65
2023-05-06T03:41:14.673Z,15.55
2023-05-06T03:43:41.967Z,12.23
2023-05-06T03:46:09.914Z,14.97
2023-05-06T03:48:37.215Z,14.32
2023-05-06T03:51:08.327Z,15.15
2023-05-06T03:53:35.511Z,13.15
2023-05-06T03:56:04.349Z,13.95
2023-05-06T03:58:32.782Z,13.90
2023-05-06T04:01:01.024Z,12.57
2023-05-06T04:03:29.022Z,14.80
2023-05-06T04:05:56.231Z,11.90
2023-05-06T04:08:26.354Z,16.75
2023-05-06T04:10:54.455Z,15.10
2023-05-06T04:13:28.300Z,16.52
2023-05-06T04:15:58.584Z,13.82
2023-05-06T04:18:32.800Z,11.75
2023-05-06T04:21:04.575Z,12.63
2023-05-06T04:23:34.610Z,13.07
2023-05-06T04:26:02.556Z,15.05
2023-05-06T04:28:31.871Z,15.32
2023-05-06T04:30:59.420Z,15.23
2023-05-06T04:33:36.052Z,17.73
2023-05-06T04:36:06.882Z,16.00
2023-05-06T04:38:37.492Z,13.68
2023-05-06T04:41:05.810Z,17.42
2023-05-06T04:43:33.451Z,17.88
2023-05-06T04:46:09.039Z,15.70
2023-05-06T04:48:38.789Z,17.13
2023-05-06T04:51:07.509Z,17.25
2023-05-06T04:53:36.158Z,16.52
2023-05-06T04:56:03.669Z,16.52
2023-05-06T04:58:31.916Z,13.02
2023-05-06T05:01:03.369Z,16.60
2023-05-06T05:03:30.998Z,14.60
2023-05-06T05:05:58.979Z,18.42
2023-05-06T05:08:27.306Z,13.32
2023-05-06T05:10:54.168Z,15.10
2023-05-06T05:13:23.728Z,15.47
2023-05-06T05:15:55.823Z,17.60
2023-05-06T05:18:25.303Z,14.45
2023-05-06T05:20:56.294Z,17.25
2023-05-06T05:23:24.391Z,12.07
2023-05-06T05:25:51.718Z,14.43
2023-05-06T05:28:18.690Z,16.45
2023-05-06T05:30:47.098Z,16.35
2023-05-06T05:33:15.028Z,14.68
2023-05-06T05:35:43.414Z,17.45
2023-05-06T05:38:13.889Z,13.87
2023-05-06T05:40:40.799Z,13.25
2023-05-06T05:43:08.031Z,15.38
2023-05-06T05:45:39.234Z,13.93
2023-05-06T05:48:06.930Z,14.93
2023-05-06T05:50:33.944Z,14.47
2023-05-06T05:53:01.123Z,14.90
2023-05-06T05:55:29.505Z,16.02
2023-05-06T05:57:57.133Z,13.13
2023-05-06T06:00:26.210Z,15.98
2023-05-06T06:03:00.675Z,16.73
2023-05-06T06:05:28.270Z,14.77
2023-05-06T06:07:55.577Z,13.73
2023-05-06T06:10:25.458Z,16.13
2023-05-06T06:12:52.916Z,15.65
2023-05-06T06:15:23.266Z,15.30
2023-05-06T06:17:55.974Z,13.63
2023-05-06T06:20:26.579Z,13.75
2023-05-06T06:22:54.364Z,16.70
2023-05-06T06:25:21.628Z,14.77
2023-05-06T06:27:48.944Z,12.73
2023-05-06T06:30:16.440Z,15.40
2023-05-06T06:32:51.496Z,14.27
2023-05-06T06:35:20.005Z,14.70
2023-05-06T06:37:47.419Z,16.38
2023-05-06T06:40:14.829Z,15.17
2023-05-06T06:42:42.071Z,15.02
2023-05-06T06:45:29.216Z,11.82
2023-05-06T06:47:56.510Z,16.73
2023-05-06T06:50:23.914Z,16.45
2023-05-06T06:52:51.166Z,16.23
2023-05-06T06:55:18.123Z,15.85
2023-05-06T06:57:45.636Z,16.02
2023-05-06T07:00:12.923Z,15.20
2023-05-06T07:02:40.468Z,16.30
2023-05-06T07:05:07.992Z,15.33
2023-05-06T07:07:35.630Z,17.50
2023-05-06T07:10:03.077Z,18.02
2023-05-06T07:12:30.290Z,15.80
2023-05-06T07:14:57.726Z,14.55
2023-05-06T07:17:25.001Z,15.80
2023-05-06T07:19:52.269Z,15.63
2023-05-06T07:22:19.413Z,15.75
2023-05-06T07:24:46.644Z,15.30
2023-05-06T07:27:13.871Z,15.55
2023-05-06T07:29:41.194Z,14.57
2023-05-06T07:32:08.077Z,14.98
2023-05-06T07:34:36.061Z,14.15
2023-05-06T07:37:03.895Z,15.27
2023-05-06T07:39:31.680Z,14.32
2023-05-06T07:41:58.897Z,15.30
2023-05-06T07:44:26.135Z,17.00
2023-05-06T07:46:53.549Z,10.63
2023-05-06T07:49:20.826Z,14.85
2023-05-06T07:51:48.123Z,12.48
2023-05-06T07:54:14.909Z,14.10
2023-05-06T07:56:42.207Z,14.15
2023-05-06T07:59:09.519Z,15.77
2023-05-06T08:01:36.735Z,15.20
2023-05-06T08:04:03.790Z,15.95
2023-05-06T08:06:30.658Z,15.80
2023-05-06T08:08:57.884Z,13.60
2023-05-06T08:11:25.244Z,15.95
2023-05-06T08:13:52.568Z,15.52
2023-05-06T08:16:19.900Z,14.50
2023-05-06T08:18:47.138Z,15.93
2023-05-06T08:21:14.351Z,14.40
2023-05-06T08:23:41.863Z,15.95
2023-05-06T08:26:09.113Z,15.52
2023-05-06T08:28:36.569Z,15.88
2023-05-06T08:31:03.391Z,15.33
2023-05-06T08:33:30.932Z,15.40
2023-05-06T08:35:59.072Z,15.68
2023-05-06T08:38:26.878Z,15.93
2023-05-06T08:40:54.800Z,16.05
2023-05-06T08:43:23.609Z,16.37
2023-05-06T08:45:50.886Z,15.05
2023-05-06T08:48:18.522Z,15.45
2023-05-06T08:50:45.969Z,16.13
2023-05-06T08:53:13.860Z,16.55
2023-05-06T08:55:42.053Z,17.20
2023-05-06T08:58:11.240Z,16.65
2023-05-06T09:00:38.630Z,16.20
2023-05-06T09:03:05.984Z,14.93
2023-05-06T09:05:32.999Z,15.07
2023-05-06T09:08:00.378Z,15.03
2023-05-06T09:10:32.950Z,15.82
2023-05-06T09:13:00.408Z,16.50
2023-05-06T09:15:27.793Z,15.18
2023-05-06T09:17:55.470Z,14.32
2023-05-06T09:20:22.480Z,13.83
2023-05-06T09:22:49.747Z,13.75
2023-05-06T09:25:17.289Z,15.52
2023-05-06T09:27:44.170Z,13.30
2023-05-06T09:30:12.522Z,13.88
2023-05-06T09:32:40.872Z,14.37
2023-05-06T09:35:09.978Z,13.48
2023-05-06T09:37:37.537Z,14.52
2023-05-06T09:40:04.729Z,14.57
2023-05-06T09:42:32.112Z,14.20
2023-05-06T09:45:02.130Z,12.53
2023-05-06T09:47:34.675Z,12.55
2023-05-06T09:50:02.749Z,10.77
2023-05-06T09:52:30.795Z,9.93
2023-05-06T09:54:58.273Z,12.30
2023-05-06T09:57:26.200Z,12.73
2023-05-06T09:59:55.549Z,11.88
2023-05-06T10:02:23.694Z,11.38
2023-05-06T10:04:51.682Z,11.98
2023-05-06T10:07:23.537Z,9.73
2023-05-06T10:09:53.292Z,11.23
2023-05-06T10:12:20.796Z,11.70
2023-05-06T10:14:48.166Z,11.35
2023-05-06T10:17:16.128Z,11.75
2023-05-06T10:19:45.873Z,9.20
2023-05-06T10:22:30.859Z,8.77
2023-05-06T10:25:04.082Z,10.82
2023-05-06T10:27:32.455Z,10.90
2023-05-06T10:30:00.310Z,9.70
2023-05-06T10:32:31.800Z,10.02
2023-05-06T10:35:09.523Z,8.80
2023-05-06T10:37:38.742Z,10.57
2023-05-06T10:40:06.651Z,10.65
2023-05-06T10:42:36.527Z,9.70
2023-05-06T10:45:05.873Z,10.90
2023-05-06T10:47:58.680Z,9.90
2023-05-06T10:50:26.853Z,9.77
2023-05-06T10:52:56.371Z,9.48
2023-05-06T10:55:29.502Z,10.43
2023-05-06T10:58:00.254Z,9.00
2023-05-06T11:00:31.206Z,10.10
2023-05-06T11:03:01.161Z,9.25
2023-05-06T11:05:28.108Z,11.10
2023-05-06T11:08:09.141Z,9.60
2023-05-06T11:10:36.455Z,9.45
2023-05-06T11:13:34.427Z,9.43
2023-05-06T11:16:02.525Z,8.38
2023-05-06T11:18:31.895Z,8.82
2023-05-06T11:21:00.716Z,8.73
2023-05-06T11:23:54.825Z,8.63
2023-05-06T11:26:21.748Z,8.20
2023-05-06T11:28:51.122Z,8.43
2023-05-06T11:31:19.110Z,7.80
2023-05-06T11:33:48.132Z,7.80
2023-05-06T11:36:17.706Z,8.60
2023-05-06T11:38:49.717Z,7.97
2023-05-06T11:41:17.365Z,8.70
2023-05-06T11:43:50.024Z,8.15
2023-05-06T11:46:19.457Z,8.88
2023-05-06T11:48:46.702Z,9.10
2023-05-06T11:51:13.526Z,8.77
2023-05-06T11:53:40.586Z,10.07
2023-05-06T11:56:08.256Z,10.48
2023-05-06T11:58:35.183Z,10.73
2023-05-06T12:01:03.999Z,10.63
2023-05-06T12:03:32.308Z,10.00
2023-05-06T12:06:00.052Z,10.55
2023-05-06T12:08:32.700Z,10.65
2023-05-06T12:11:02.100Z,11.13
2023-05-06T12:13:29.828Z,11.02
2023-05-06T12:15:58.615Z,10.73
2023-05-06T12:18:26.347Z,10.65
2023-05-06T12:20:54.851Z,11.57
2023-05-06T12:23:22.277Z,10.13
2023-05-06T12:26:09.134Z,10.43
2023-05-06T12:28:36.834Z,8.53
2023-05-06T12:31:24.099Z,7.45
2023-05-06T12:33:51.308Z,8.90
2023-05-06T12:36:19.506Z,8.80
2023-05-06T12:38:53.334Z,9.90
2023-05-06T12:41:21.393Z,9.57
2023-05-06T12:43:48.823Z,8.20
2023-05-06T12:46:17.110Z,6.75
2023-05-06T12:48:57.738Z,7.45
2023-05-06T12:51:24.985Z,5.57
2023-05-06T12:53:52.102Z,5.77
2023-05-06T12:56:20.336Z,6.28
2023-05-06T12:59:00.947Z,5.43
2023-05-06T13:01:28.069Z,4.07
2023-05-06T13:03:58.423Z,3.95
2023-05-06T13:06:25.371Z,4.87
2023-05-06T13:08:52.315Z,5.50
2023-05-06T13:11:19.327Z,6.03
2023-05-06T13:13:46.282Z,5.38
2023-05-06T13:16:13.164Z,5.63
2023-05-06T13:18:40.045Z,5.30
2023-05-06T13:21:06.900Z,5.32
2023-05-06T13:23:38.079Z,5.88
2023-05-06T13:26:06.077Z,5.53
2023-05-06T13:28:35.341Z,5.20
2023-05-06T13:31:02.316Z,5.50
2023-05-06T13:33:29.284Z,6.78
2023-05-06T13:35:56.172Z,7.00
2023-05-06T13:38:23.194Z,6.03
2023-05-06T13:40:52.008Z,5.88
2023-05-06T13:43:19.855Z,5.40
2023-05-06T13:45:46.762Z,5.78
2023-05-06T13:48:14.461Z,6.90
2023-05-06T13:50:42.805Z,5.68
2023-05-06T13:53:10.627Z,6.25
2023-05-06T13:55:37.912Z,6.90
2023-05-06T13:58:06.141Z,5.85
2023-05-06T14:00:33.743Z,6.10
2023-05-06T14:03:01.342Z,6.45
2023-05-06T14:05:28.282Z,6.47
2023-05-06T14:07:55.224Z,6.70
2023-05-06T14:10:22.092Z,5.45
2023-05-06T14:12:49.139Z,5.45
2023-05-06T14:15:16.132Z,5.20
2023-05-06T14:17:43.411Z,5.18
2023-05-06T14:20:10.646Z,5.20
2023-05-06T14:22:40.916Z,5.50
2023-05-06T14:25:09.142Z,5.97
2023-05-06T14:27:36.826Z,5.43
2023-05-06T14:30:09.265Z,4.80
2023-05-06T14:32:37.268Z,4.90
2023-05-06T14:35:04.623Z,4.90
2023-05-06T14:37:31.581Z,5.20
2023-05-06T14:39:58.388Z,5.10
2023-05-06T14:42:25.632Z,5.00
2023-05-06T14:44:52.670Z,5.60
2023-05-06T14:47:19.591Z,4.80
2023-05-06T14:49:46.384Z,4.65
2023-05-06T14:52:13.399Z,4.97
2023-05-06T14:54:43.098Z,5.50
2023-05-06T14:57:11.242Z,5.50
2023-05-06T14:59:38.519Z,5.45
2023-05-06T15:02:08.495Z,5.03
2023-05-06T15:04:36.395Z,4.82
2023-05-06T15:07:04.045Z,4.47
2023-05-06T15:09:31.553Z,5.53
2023-05-06T15:11:58.994Z,5.03
2023-05-06T15:14:26.212Z,5.32
2023-05-06T15:16:57.165Z,5.80
2023-05-06T15:19:24.756Z,5.45
2023-05-06T15:21:51.759Z,4.60
2023-05-06T15:24:19.164Z,4.70
2023-05-06T15:26:46.412Z,4.90
2023-05-06T15:29:13.339Z,4.55
2023-05-06T15:31:41.041Z,4.70
2023-05-06T15:34:09.722Z,3.87
2023-05-06T15:36:37.131Z,4.60
2023-05-06T15:39:04.325Z,4.60
2023-05-06T15:41:32.984Z,4.30
2023-05-06T15:44:01.666Z,4.57
2023-05-06T15:46:29.637Z,5.20
2023-05-06T15:49:12.841Z,5.20
2023-05-06T15:51:43.940Z,4.70
2023-05-06T15:54:11.480Z,4.10
2023-05-06T15:56:41.381Z,3.95
2023-05-06T15:59:08.825Z,4.30
2023-05-06T16:02:12.829Z,3.60
2023-05-06T16:04:23.830Z,4.10
2023-05-06T16:06:51.027Z,4.20
2023-05-06T16:09:17.933Z,4.45
2023-05-06T16:11:45.124Z,4.00
2023-05-06T16:14:12.497Z,4.35
2023-05-06T16:16:39.774Z,4.05
2023-05-06T16:19:07.413Z,4.20
2023-05-06T16:21:34.714Z,3.42
2023-05-06T16:24:02.683Z,3.53
2023-05-06T16:26:29.651Z,3.35
2023-05-06T16:28:56.568Z,2.97
2023-05-06T16:31:23.804Z,3.17
2023-05-06T16:33:50.978Z,3.00
2023-05-06T16:36:18.544Z,2.93
2023-05-06T16:38:45.474Z,2.80
2023-05-06T16:41:12.696Z,2.97
2023-05-06T16:43:39.587Z,2.80
2023-05-06T16:46:06.458Z,3.05
2023-05-06T16:48:33.676Z,3.00
2023-05-06T16:51:00.705Z,3.72
2023-05-06T16:53:28.162Z,2.92
2023-05-06T16:55:55.437Z,3.30
2023-05-06T16:58:22.698Z,3.22
2023-05-06T17:00:52.659Z,3.13
2023-05-06T17:03:20.021Z,3.20
2023-05-06T17:05:47.138Z,3.45
2023-05-06T17:08:16.067Z,3.60
2023-05-06T17:10:43.558Z,3.50
2023-05-06T17:13:10.968Z,3.57
2023-05-06T17:15:38.406Z,3.60
2023-05-06T17:18:05.892Z,3.53
2023-05-06T17:20:40.688Z,3.10
2023-05-06T17:23:15.239Z,2.95
2023-05-06T17:25:42.054Z,3.33
2023-05-06T17:28:09.311Z,3.38
2023-05-06T17:30:36.599Z,3.30
2023-05-06T17:33:03.939Z,4.47
2023-05-06T17:35:31.379Z,3.97
2023-05-06T17:37:58.602Z,3.37
2023-05-06T17:40:25.845Z,3.13
2023-05-06T17:42:53.106Z,4.28
2023-05-06T17:45:19.947Z,4.60
2023-05-06T17:47:47.368Z,4.70
2023-05-06T17:50:14.769Z,5.00
2023-05-06T17:52:41.685Z,5.38
2023-05-06T17:55:16.114Z,6.45
2023-05-06T17:57:43.850Z,6.25
2023-05-06T18:00:11.559Z,7.07
2023-05-06T18:02:42.838Z,7.00
2023-05-06T18:05:10.516Z,7.40
2023-05-06T18:07:38.061Z,8.32
2023-05-06T18:10:05.811Z,7.95
2023-05-06T18:12:33.267Z,8.48
2023-05-06T18:15:01.361Z,8.77
2023-05-06T18:17:28.811Z,8.77
2023-05-06T18:19:55.741Z,9.80
2023-05-06T18:22:22.882Z,9.85
2023-05-06T18:24:55.144Z,10.43
2023-05-06T18:27:22.590Z,10.40
2023-05-06T18:29:49.891Z,9.57
2023-05-06T18:32:17.195Z,10.10
2023-05-06T18:34:44.247Z,11.10
2023-05-06T18:37:11.612Z,10.40
2023-05-06T18:39:43.237Z,9.90
2023-05-06T18:42:10.762Z,10.75
2023-05-06T18:44:38.154Z,10.48
2023-05-06T18:47:05.681Z,10.98
2023-05-06T18:49:33.390Z,9.82
2023-05-06T18:52:01.999Z,10.10
2023-05-06T18:54:29.201Z,10.70
2023-05-06T18:56:57.760Z,9.95
2023-05-06T18:59:25.620Z,10.55
2023-05-06T19:01:52.955Z,11.32
2023-05-06T19:04:20.293Z,9.97
2023-05-06T19:06:47.155Z,9.75
2023-05-06T19:09:14.541Z,9.95
2023-05-06T19:11:41.468Z,10.75
2023-05-06T19:14:08.374Z,10.30
2023-05-06T19:16:35.395Z,10.30
2023-05-06T19:19:06.842Z,10.30
2023-05-06T19:21:40.189Z,10.10
2023-05-06T19:24:07.627Z,9.82
2023-05-06T19:26:35.201Z,10.85
2023-05-06T19:29:02.040Z,10.10
2023-05-06T19:31:29.376Z,10.00
2023-05-06T19:33:57.102Z,9.90
2023-05-06T19:36:24.000Z,10.80
2023-05-06T19:38:51.387Z,9.57
2023-05-06T19:41:18.657Z,10.00
2023-05-06T19:43:45.845Z,10.48
2023-05-06T19:46:13.569Z,10.00
2023-05-06T19:48:40.961Z,9.55
2023-05-06T19:51:08.395Z,10.32
2023-05-06T19:53:36.308Z,9.97
2023-05-06T19:56:11.097Z,9.82
2023-05-06T19:58:38.362Z,11.27
2023-05-06T20:01:05.233Z,9.65
2023-05-06T20:03:33.220Z,10.38
2023-05-06T20:06:00.505Z,10.70
2023-05-06T20:08:27.793Z,10.02
2023-05-06T20:10:55.153Z,10.70
2023-05-06T20:13:22.434Z,11.48
2023-05-06T20:15:49.904Z,11.10
2023-05-06T20:18:17.323Z,10.90
2023-05-06T20:20:44.248Z,10.23
2023-05-06T20:23:11.470Z,10.75
2023-05-06T20:25:38.998Z,10.35
2023-05-06T20:28:06.899Z,10.05
2023-05-06T20:30:34.326Z,8.77
2023-05-06T20:33:02.056Z,9.50
2023-05-06T20:35:29.332Z,9.40
2023-05-06T20:37:56.652Z,9.60
2023-05-06T20:40:23.930Z,10.75
2023-05-06T20:42:51.294Z,10.77
2023-05-06T20:45:18.514Z,11.68
2023-05-06T20:47:45.931Z,11.20
2023-05-06T20:50:17.317Z,10.63
2023-05-06T20:52:47.583Z,9.07
2023-05-06T20:55:18.146Z,9.30
2023-05-06T20:57:45.030Z,10.07
2023-05-06T21:00:12.407Z,11.40
2023-05-06T21:02:41.221Z,10.93
2023-05-06T21:05:09.635Z,9.70
2023-05-06T21:07:37.053Z,11.03
2023-05-06T21:10:05.807Z,11.00
2023-05-06T21:12:33.564Z,11.48
2023-05-06T21:15:01.334Z,11.32
2023-05-06T21:17:29.079Z,10.10
2023-05-06T21:19:56.608Z,11.53
2023-05-06T21:22:24.272Z,10.65
2023-05-06T21:24:52.055Z,9.93
2023-05-06T21:27:19.472Z,10.27
2023-05-06T21:29:46.755Z,11.05
2023-05-06T21:32:13.753Z,10.50
2023-05-06T21:34:40.674Z,9.75
2023-05-06T21:37:08.115Z,10.60
2023-05-06T21:39:35.767Z,10.85
2023-05-06T21:42:02.964Z,11.18
2023-05-06T21:44:30.442Z,10.27
2023-05-06T21:46:57.419Z,10.90
2023-05-06T21:49:24.305Z,12.35
2023-05-06T21:51:51.312Z,10.57
2023-05-06T21:54:18.614Z,11.95
2023-05-06T21:56:46.352Z,11.53
2023-05-06T21:59:13.539Z,12.85
2023-05-06T22:01:40.493Z,13.23
2023-05-06T22:04:12.277Z,14.63
2023-05-06T22:06:39.882Z,16.70
2023-05-06T22:09:09.424Z,15.40
2023-05-06T22:11:38.121Z,15.43
2023-05-06T22:14:06.618Z,14.77
2023-05-06T22:16:35.313Z,12.93
2023-05-06T22:19:03.650Z,13.57
2023-05-06T22:21:34.468Z,12.73
2023-05-06T22:24:01.967Z,12.43
2023-05-06T22:26:29.191Z,12.10
2023-05-06T22:28:56.688Z,13.07
2023-05-06T22:31:24.811Z,11.52
2023-05-06T22:33:55.218Z,10.63
2023-05-06T22:36:22.297Z,10.48
2023-05-06T22:38:49.776Z,10.75
2023-05-06T22:41:18.296Z,10.27
2023-05-06T22:43:45.838Z,10.77
2023-05-06T22:46:13.155Z,12.13
2023-05-06T22:48:40.534Z,11.75
2023-05-06T22:51:08.114Z,12.60
2023-05-06T22:53:35.387Z,11.60
2023-05-06T22:56:02.618Z,11.32
2023-05-06T22:58:30.398Z,10.53
2023-05-06T23:00:57.739Z,9.98
2023-05-06T23:03:25.053Z,8.73
2023-05-06T23:05:52.570Z,12.15
2023-05-06T23:08:19.788Z,12.98
2023-05-06T23:10:47.294Z,12.80
2023-05-06T23:13:14.275Z,12.32
2023-05-06T23:15:41.627Z,11.15
2023-05-06T23:18:08.592Z,10.00
2023-05-06T23:20:36.093Z,9.60
2023-05-06T23:23:03.618Z,10.20
2023-05-06T23:25:30.938Z,8.10
2023-05-06T23:27:58.125Z,10.10
2023-05-06T23:30:24.940Z,11.65
2023-05-06T23:32:52.345Z,10.65
2023-05-06T23:35:19.866Z,8.83
2023-05-06T23:37:47.073Z,11.98
2023-05-06T23:40:14.515Z,11.27
2023-05-06T23:42:41.788Z,10.85
2023-05-06T23:45:09.502Z,11.68
2023-05-06T23:47:37.008Z,9.97
2023-05-06T23:50:04.558Z,11.75
2023-05-06T23:52:31.967Z,10.73
2023-05-06T23:54:59.187Z,11.48
2023-05-06T23:57:26.310Z,10.80
2023-05-06T23:59:53.569Z,9.77
